Terminal Aerodrome Forecast
Issued by NWS

Home | Current Version | Previous Version | Text Only | Print | Product List | Glossary On
Versions: 1 2 3 4 5 6 7 8 9 10 11 12 13 14 15 16 17 18
000
FTUS45 KPSR 171136
TAFIWA
TAF
KIWA 171136Z 1712/1812 VRB10G15KT P6SM VCTS SCT050 OVC080CB
      TEMPO 1712/1714 17011G25KT -TSRA BKN050 OVC070CB
     FM172000 16011KT P6SM VCSH BKN060
     FM180300 VRB03KT P6SM SCT060 BKN080
      AMD LTD TO CLD VIS AND WIND TIL 171300=

USA.gov is the U.S. government's official web portal to all federal, state and local government web resources and services.